^^
Datos históricos de la estación: Murcia-Puente Tocinos
Diario Informe para Julio 10, 2019 Unidades:  Métrico    Inglés   Ambas
Diario Semanal Mensual Anual Configurable
  Máximo: Mínimo: Media:
Temperatura: 31.6 °C 21.6 °C 26.6 °C
Punto de rocio: 20.2 °C 13.4 °C 16.3 °C
Humedad: 75% 38% 55%
Velocidad viento: 20.1km/h 0.0km/h 9.4km/h
Racha viento: 38.9km/h - -
Viento- - East
Presión: 1013.4 hPa 1010.9 hPa -
Precipitación: 0.0 mm    
Historical Graphs
 
 
Tabla de datos para Julio 10, 2019
Hora Temperatura Punto de rocio Presión Viento Velocidad viento Racha viento Humedad Intensidad lluvia(por hora) Nubes
00:04 26.7 °C 13.4 °C 1011.7 hPa NE 5.0 km/h 14.8 km/h 44% 0.0 mm CLR
00:09 26.2 °C 13.7 °C 1011.7 hPa NE 8.7 km/h 7.4 km/h 46% 0.0 mm CLR
00:14 25.9 °C 14.4 °C 1011.7 hPa North 8.7 km/h 7.4 km/h 49% 0.0 mm CLR
00:19 25.4 °C 15.4 °C 1011.8 hPa North 6.9 km/h 11.1 km/h 54% 0.0 mm CLR
00:24 25.1 °C 15.7 °C 1011.8 hPa ENE 6.9 km/h 9.3 km/h 56% 0.0 mm CLR
00:29 24.9 °C 16.6 °C 1011.8 hPa NNE 6.4 km/h 11.1 km/h 60% 0.0 mm CLR
00:34 24.7 °C 17.2 °C 1011.8 hPa NE 6.4 km/h 10.3 km/h 63% 0.0 mm CLR
00:39 24.5 °C 17.5 °C 1011.8 hPa NNE 6.9 km/h 11.1 km/h 65% 0.0 mm CLR
00:44 24.3 °C 17.6 °C 1011.8 hPa NNW 6.9 km/h 11.1 km/h 66% 0.0 mm CLR
00:49 24.2 °C 17.4 °C 1011.8 hPa ENE 7.6 km/h 13.0 km/h 66% 0.0 mm CLR
00:54 24.2 °C 17.7 °C 1011.8 hPa NE 7.6 km/h 9.3 km/h 67% 0.0 mm CLR
00:59 24.1 °C 17.8 °C 1011.8 hPa NE 6.9 km/h 16.7 km/h 68% 0.0 mm CLR
01:04 24.0 °C 17.9 °C 1011.9 hPa NE 6.9 km/h 13.0 km/h 69% 0.0 mm CLR
01:09 23.9 °C 18.1 °C 1011.9 hPa NNE 8.7 km/h 13.0 km/h 70% 0.0 mm CLR
01:14 23.9 °C 18.6 °C 1011.9 hPa NNE 8.7 km/h 16.7 km/h 72% 0.0 mm CLR
01:19 23.9 °C 18.8 °C 1011.8 hPa NE 10.3 km/h 16.7 km/h 73% 0.0 mm CLR
01:24 23.9 °C 18.8 °C 1011.8 hPa NE 10.3 km/h 14.8 km/h 73% 0.0 mm CLR
01:29 23.9 °C 18.8 °C 1011.8 hPa NNE 9.5 km/h 11.1 km/h 73% 0.0 mm CLR
01:34 23.8 °C 18.4 °C 1011.8 hPa NE 9.5 km/h 11.1 km/h 72% 0.0 mm CLR
01:39 23.8 °C 18.4 °C 1011.8 hPa NE 8.4 km/h 9.5 km/h 72% 0.0 mm CLR
01:44 23.7 °C 17.9 °C 1011.8 hPa NE 8.4 km/h 8.7 km/h 70% 0.0 mm CLR
01:49 23.7 °C 17.4 °C 1011.7 hPa NE 6.9 km/h 11.1 km/h 68% 0.0 mm CLR
01:54 23.7 °C 16.9 °C 1011.7 hPa ENE 6.9 km/h 12.2 km/h 66% 0.0 mm CLR
01:59 23.8 °C 17.1 °C 1011.7 hPa NNE 8.4 km/h 11.9 km/h 66% 0.0 mm CLR
02:04 23.9 °C 16.9 °C 1011.7 hPa NE 8.4 km/h 11.1 km/h 65% 0.0 mm CLR
02:08 23.9 °C 16.9 °C 1011.7 hPa NNE 8.4 km/h 7.4 km/h 65% 0.0 mm CLR
02:14 23.8 °C 17.1 °C 1011.7 hPa NE 6.9 km/h 7.4 km/h 66% 0.0 mm CLR
02:19 23.7 °C 17.2 °C 1011.7 hPa NE 4.7 km/h 7.4 km/h 67% 0.0 mm CLR
02:24 23.7 °C 17.4 °C 1011.7 hPa NE 4.7 km/h 7.4 km/h 68% 0.0 mm CLR
02:29 23.6 °C 17.3 °C 1011.7 hPa NNE 3.2 km/h 3.9 km/h 68% 0.0 mm CLR
02:34 23.6 °C 17.6 °C 1011.6 hPa NNE 3.2 km/h 5.6 km/h 69% 0.0 mm CLR
02:39 23.6 °C 17.6 °C 1011.6 hPa NNE 3.2 km/h 4.7 km/h 69% 0.0 mm CLR
02:44 23.6 °C 17.6 °C 1011.6 hPa NNE 3.2 km/h 7.4 km/h 69% 0.0 mm CLR
02:49 23.6 °C 17.6 °C 1011.5 hPa North 3.9 km/h 5.6 km/h 69% 0.0 mm CLR
02:54 23.5 °C 17.7 °C 1011.5 hPa NE 3.9 km/h 7.4 km/h 70% 0.0 mm CLR
02:59 23.4 °C 17.6 °C 1011.5 hPa NNE 3.9 km/h 5.6 km/h 70% 0.0 mm CLR
03:04 23.4 °C 17.6 °C 1011.6 hPa NE 3.9 km/h 5.6 km/h 70% 0.0 mm CLR
03:09 23.4 °C 17.6 °C 1011.6 hPa NNE 3.2 km/h 3.7 km/h 70% 0.0 mm CLR
03:14 23.3 °C 17.5 °C 1011.6 hPa North 3.2 km/h 5.6 km/h 70% 0.0 mm CLR
03:19 23.3 °C 17.7 °C 1011.5 hPa NNW 3.2 km/h 3.7 km/h 71% 0.0 mm CLR
03:24 23.2 °C 17.4 °C 1011.5 hPa NNW 3.2 km/h 5.6 km/h 70% 0.0 mm CLR
03:29 23.1 °C 16.9 °C 1011.5 hPa NNW 2.9 km/h 4.7 km/h 68% 0.0 mm CLR
03:34 22.9 °C 16.4 °C 1011.7 hPa NE 2.9 km/h 7.4 km/h 67% 0.0 mm CLR
03:39 22.8 °C 15.6 °C 1011.7 hPa NE 5.0 km/h 7.4 km/h 64% 0.0 mm CLR
03:44 22.9 °C 15.7 °C 1011.7 hPa ENE 5.0 km/h 5.6 km/h 64% 0.0 mm CLR
03:49 22.9 °C 15.7 °C 1011.7 hPa North 3.9 km/h 9.3 km/h 64% 0.0 mm CLR
03:54 22.8 °C 14.9 °C 1011.7 hPa NE 3.9 km/h 7.6 km/h 61% 0.0 mm CLR
03:59 22.8 °C 15.1 °C 1011.7 hPa ENE 5.0 km/h 5.6 km/h 62% 0.0 mm CLR
04:04 22.8 °C 15.4 °C 1011.7 hPa NE 5.0 km/h 7.4 km/h 63% 0.0 mm CLR
04:09 22.9 °C 16.2 °C 1011.7 hPa ENE 4.7 km/h 5.6 km/h 66% 0.0 mm CLR
04:14 22.8 °C 16.1 °C 1011.7 hPa ENE 4.7 km/h   66% 0.0 mm CLR
04:19 22.8 °C 15.4 °C 1011.8 hPa ENE 2.3 km/h   63% 0.0 mm CLR
04:24 22.8 °C 15.1 °C 1011.8 hPa ENE 2.3 km/h   62% 0.0 mm CLR
04:29 22.8 °C 14.4 °C 1011.8 hPa Calm   7.4 km/h 59% 0.0 mm CLR
04:34 22.9 °C 13.9 °C 1011.9 hPa Calm   7.4 km/h 57% 0.0 mm CLR
04:39 23.1 °C 14.1 °C 1011.9 hPa ESE 3.9 km/h 4.7 km/h 57% 0.0 mm CLR
04:44 23.1 °C 14.1 °C 1011.9 hPa ESE 3.9 km/h 3.7 km/h 57% 0.0 mm CLR
04:49 23.1 °C 14.1 °C 1011.9 hPa SE 2.9 km/h 3.7 km/h 57% 0.0 mm CLR
04:54 23.1 °C 15.2 °C 1011.9 hPa NE 2.9 km/h 5.6 km/h 61% 0.0 mm CLR
04:59 22.9 °C 15.0 °C 1011.9 hPa NE 2.9 km/h 3.7 km/h 61% 0.0 mm CLR
05:04 22.8 °C 14.9 °C 1012.0 hPa NE 2.9 km/h   61% 0.0 mm CLR
05:09 22.7 °C 14.6 °C 1012.0 hPa Calm   4.7 km/h 60% 0.0 mm CLR
05:14 22.7 °C 14.6 °C 1012.0 hPa Calm   5.6 km/h 60% 0.0 mm CLR
05:19 22.8 °C 14.6 °C 1012.0 hPa SSW 3.9 km/h 7.4 km/h 60% 0.0 mm CLR
05:24 22.8 °C 14.6 °C 1012.0 hPa SSW 3.9 km/h 5.6 km/h 60% 0.0 mm CLR
05:29 22.9 °C 14.7 °C 1012.0 hPa SSW 3.9 km/h 3.7 km/h 60% 0.0 mm CLR
05:34 22.9 °C 14.7 °C 1012.1 hPa SSW 3.9 km/h 5.6 km/h 60% 0.0 mm CLR
05:39 23.0 °C 14.8 °C 1012.1 hPa SSW 2.9 km/h 3.7 km/h 60% 0.0 mm CLR
05:44 22.9 °C 14.7 °C 1012.1 hPa SSW 2.9 km/h 9.3 km/h 60% 0.0 mm CLR
05:49 22.8 °C 15.1 °C 1012.2 hPa SSW 3.2 km/h 4.7 km/h 62% 0.0 mm CLR
05:54 22.7 °C 15.1 °C 1012.2 hPa WNW 3.2 km/h 3.7 km/h 62% 0.0 mm CLR
05:59 22.6 °C 15.2 °C 1012.2 hPa West 2.3 km/h 5.6 km/h 63% 0.0 mm CLR
06:04 22.5 °C 15.1 °C 1012.3 hPa West 2.3 km/h 5.8 km/h 63% 0.0 mm CLR
06:09 22.4 °C 15.0 °C 1012.3 hPa West 3.9 km/h 5.6 km/h 63% 0.0 mm CLR
06:14 22.4 °C 15.0 °C 1012.3 hPa West 3.9 km/h 3.9 km/h 63% 0.0 mm CLR
06:19 22.4 °C 14.8 °C 1012.4 hPa West 3.2 km/h 3.2 km/h 62% 0.0 mm CLR
06:24 22.4 °C 14.5 °C 1012.4 hPa West 3.2 km/h 3.7 km/h 61% 0.0 mm CLR
06:29 22.4 °C 14.3 °C 1012.4 hPa SSW 2.9 km/h 7.4 km/h 60% 0.0 mm CLR
06:34 22.4 °C 14.5 °C 1012.6 hPa NW 2.9 km/h 3.7 km/h 61% 0.0 mm CLR
06:39 22.4 °C 14.5 °C 1012.6 hPa NW 2.9 km/h   61% 0.0 mm CLR
06:44 22.4 °C 14.5 °C 1012.6 hPa NW 2.9 km/h   61% 0.0 mm CLR
06:49 22.3 °C 14.4 °C 1012.6 hPa Calm   5.6 km/h 61% 0.0 mm CLR
06:54 21.9 °C 14.1 °C 1012.6 hPa Calm   7.4 km/h 61% 0.0 mm CLR
06:59 21.7 °C 14.1 °C 1012.6 hPa East 4.7 km/h 5.0 km/h 62% 0.0 mm CLR
07:04 21.6 °C 14.0 °C 1012.6 hPa East 4.7 km/h   62% 0.0 mm CLR
07:09 21.6 °C 14.0 °C 1012.6 hPa Calm   5.6 km/h 62% 0.0 mm CLR
07:14 21.6 °C 14.0 °C 1012.6 hPa Calm   6.4 km/h 62% 0.0 mm CLR
07:19 21.6 °C 13.8 °C 1012.7 hPa SE 4.7 km/h 7.4 km/h 61% 0.0 mm CLR
07:24 21.7 °C 13.8 °C 1012.7 hPa SE 4.7 km/h 3.7 km/h 61% 0.0 mm CLR
07:29 21.7 °C 13.8 °C 1012.7 hPa South 2.9 km/h 5.6 km/h 61% 0.0 mm CLR
07:34 21.8 °C 13.9 °C 1012.6 hPa SSE 2.9 km/h 7.4 km/h 61% 0.0 mm CLR
07:39 22.0 °C 13.9 °C 1012.6 hPa SE 4.7 km/h 3.7 km/h 60% 0.0 mm CLR
07:44 22.2 °C 14.1 °C 1012.6 hPa SE 4.7 km/h 5.6 km/h 60% 0.0 mm CLR
07:49 22.3 °C 13.9 °C 1012.7 hPa SSE 2.3 km/h 3.7 km/h 59% 0.0 mm CLR
07:54 22.4 °C 14.0 °C 1012.7 hPa SSE 2.3 km/h 5.6 km/h 59% 0.0 mm CLR
07:59 22.6 °C 14.2 °C 1012.7 hPa SSE 3.2 km/h 5.6 km/h 59% 0.0 mm CLR
08:04 22.7 °C 14.3 °C 1012.8 hPa SSE 3.2 km/h 5.0 km/h 59% 0.0 mm CLR
08:09 22.9 °C 14.4 °C 1012.8 hPa SSE 3.2 km/h 7.4 km/h 59% 0.0 mm CLR
08:14 22.9 °C 14.4 °C 1012.8 hPa South 3.2 km/h 7.4 km/h 59% 0.0 mm CLR
08:19 22.8 °C 14.4 °C 1013.0 hPa SSE 5.0 km/h 7.6 km/h 59% 0.0 mm CLR
08:24 22.8 °C 14.4 °C 1013.0 hPa South 5.0 km/h 7.4 km/h 59% 0.0 mm CLR
08:29 23.0 °C 14.6 °C 1013.0 hPa SSE 5.0 km/h 5.6 km/h 59% 0.0 mm CLR
08:34 23.2 °C 14.7 °C 1013.1 hPa SSE 5.0 km/h 7.4 km/h 59% 0.0 mm CLR
08:39 23.4 °C 14.9 °C 1013.1 hPa SSE 3.9 km/h 5.6 km/h 59% 0.0 mm CLR
08:44 23.6 °C 16.4 °C 1013.1 hPa SW 3.9 km/h 3.7 km/h 64% 0.0 mm CLR
08:49 23.7 °C 15.2 °C 1013.1 hPa South 3.9 km/h 7.6 km/h 59% 0.0 mm CLR
08:54 23.7 °C 15.5 °C 1013.1 hPa South 3.9 km/h 9.3 km/h 60% 0.0 mm CLR
08:59 23.7 °C 15.5 °C 1013.1 hPa SE 6.4 km/h 9.3 km/h 60% 0.0 mm CLR
09:04 23.9 °C 15.9 °C 1013.3 hPa SSE 6.4 km/h 9.5 km/h 61% 0.0 mm CLR
09:09 23.9 °C 15.9 °C 1013.3 hPa SE 6.4 km/h 13.0 km/h 61% 0.0 mm CLR
09:14 24.0 °C 16.3 °C 1013.3 hPa South 6.4 km/h 7.4 km/h 62% 0.0 mm CLR
09:19 24.3 °C 16.6 °C 1013.4 hPa South 5.8 km/h 9.3 km/h 62% 0.0 mm CLR
09:24 24.4 °C 16.7 °C 1013.4 hPa SSE 5.8 km/h 7.4 km/h 62% 0.0 mm CLR
09:29 24.6 °C 16.8 °C 1013.4 hPa SSW 5.0 km/h 5.6 km/h 62% 0.0 mm CLR
09:34 24.7 °C 16.9 °C 1013.3 hPa WSW 5.0 km/h 7.4 km/h 62% 0.0 mm CLR
09:39 24.9 °C 16.8 °C 1013.3 hPa WSW 3.9 km/h 7.4 km/h 61% 0.0 mm CLR
09:44 25.2 °C 17.2 °C 1013.3 hPa NW 3.9 km/h 7.4 km/h 61% 0.0 mm CLR
09:49 25.3 °C 17.0 °C 1013.3 hPa WNW 3.9 km/h 7.4 km/h 60% 0.0 mm CLR
09:54 25.5 °C 17.2 °C 1013.3 hPa NNE 3.9 km/h 6.9 km/h 60% 0.0 mm CLR
09:59 25.8 °C 17.4 °C 1013.3 hPa ENE 3.9 km/h 7.4 km/h 60% 0.0 mm CLR
10:04 26.2 °C 17.6 °C 1013.2 hPa NE 3.9 km/h 5.0 km/h 59% 0.0 mm CLR
10:09 26.3 °C 17.7 °C 1013.2 hPa NNE 4.7 km/h 9.3 km/h 59% 0.0 mm CLR
10:14 26.3 °C 17.7 °C 1013.2 hPa ESE 4.7 km/h 11.1 km/h 59% 0.0 mm CLR
10:19 26.4 °C 17.2 °C 1013.3 hPa NE 6.9 km/h 11.9 km/h 57% 0.0 mm CLR
10:24 26.4 °C 17.4 °C 1013.3 hPa NNE 6.9 km/h 13.0 km/h 58% 0.0 mm CLR
10:29 26.4 °C 17.4 °C 1013.3 hPa ENE 8.4 km/h 13.0 km/h 58% 0.0 mm CLR
10:34 26.5 °C 17.3 °C 1013.3 hPa NE 8.4 km/h 11.1 km/h 57% 0.0 mm CLR
10:39 26.6 °C 17.7 °C 1013.3 hPa NE 7.6 km/h 10.3 km/h 58% 0.0 mm CLR
10:44 26.7 °C 17.2 °C 1013.3 hPa NE 7.6 km/h 15.6 km/h 56% 0.0 mm CLR
10:49 26.8 °C 17.3 °C 1013.3 hPa NNE 7.6 km/h 11.1 km/h 56% 0.0 mm CLR
10:54 26.9 °C 17.1 °C 1013.3 hPa NNW 7.6 km/h 13.0 km/h 55% 0.0 mm CLR
10:59 27.2 °C 17.1 °C 1013.3 hPa ENE 8.7 km/h 14.8 km/h 54% 0.0 mm CLR
11:04 27.3 °C 17.2 °C 1013.2 hPa ENE 8.7 km/h 7.6 km/h 54% 0.0 mm CLR
11:09 27.5 °C 17.4 °C 1013.2 hPa ENE 8.4 km/h 13.0 km/h 54% 0.0 mm CLR
11:14 27.7 °C 17.6 °C 1013.2 hPa East 8.4 km/h 13.0 km/h 54% 0.0 mm CLR
11:19 27.8 °C 17.3 °C 1013.0 hPa NNE 8.7 km/h 16.7 km/h 53% 0.0 mm CLR
11:24 27.9 °C 17.4 °C 1013.0 hPa North 8.7 km/h 16.7 km/h 53% 0.0 mm CLR
11:29 28.0 °C 16.9 °C 1013.0 hPa NE 10.0 km/h 16.7 km/h 51% 0.0 mm CLR
11:34 27.9 °C 17.1 °C 1013.0 hPa NE 10.0 km/h 16.7 km/h 52% 0.0 mm CLR
11:39 28.1 °C 17.3 °C 1013.0 hPa NNE 11.9 km/h 14.8 km/h 52% 0.0 mm CLR
11:44 28.2 °C 17.4 °C 1013.0 hPa East 11.9 km/h 11.9 km/h 52% 0.0 mm CLR
11:49 28.7 °C 17.2 °C 1013.0 hPa ENE 10.0 km/h 16.7 km/h 50% 0.0 mm CLR
11:54 28.7 °C 17.2 °C 1013.0 hPa NE 10.0 km/h 24.1 km/h 50% 0.0 mm CLR
11:59 28.8 °C 17.3 °C 1013.0 hPa North 13.7 km/h 16.7 km/h 50% 0.0 mm CLR
12:04 29.2 °C 14.9 °C 1013.1 hPa NE 13.7 km/h 22.2 km/h 42% 0.0 mm CLR
12:09 29.7 °C 15.1 °C 1013.1 hPa East 10.0 km/h 14.8 km/h 41% 0.0 mm CLR
12:14 29.8 °C 14.7 °C 1013.1 hPa NNE 10.0 km/h 22.2 km/h 40% 0.0 mm CLR
12:19 29.6 °C 14.9 °C 1013.1 hPa NNE 14.0 km/h 20.4 km/h 41% 0.0 mm CLR
12:24 29.7 °C 14.7 °C 1013.1 hPa ENE 14.0 km/h 25.1 km/h 40% 0.0 mm CLR
12:29 29.8 °C 14.7 °C 1013.1 hPa ENE 13.7 km/h 14.8 km/h 40% 0.0 mm CLR
12:34 30.0 °C 14.9 °C 1013.1 hPa ENE 13.7 km/h 24.1 km/h 40% 0.0 mm CLR
12:39 29.9 °C 14.4 °C 1013.1 hPa SE 13.7 km/h 18.5 km/h 39% 0.0 mm CLR
12:44 30.1 °C 14.2 °C 1013.1 hPa NE 13.7 km/h 25.6 km/h 38% 0.0 mm CLR
12:49 29.9 °C 14.4 °C 1013.1 hPa NE 15.6 km/h 18.5 km/h 39% 0.0 mm CLR
12:54 30.1 °C 14.6 °C 1013.1 hPa ENE 15.6 km/h 25.9 km/h 39% 0.0 mm CLR
12:59 30.2 °C 14.7 °C 1013.1 hPa NE 13.0 km/h 29.6 km/h 39% 0.0 mm CLR
13:04 30.1 °C 14.6 °C 1013.0 hPa NE 13.0 km/h 20.4 km/h 39% 0.0 mm CLR
13:09 30.1 °C 14.6 °C 1013.0 hPa NNE 17.2 km/h 27.8 km/h 39% 0.0 mm CLR
13:14 30.0 °C 14.9 °C 1013.0 hPa North 17.2 km/h 24.1 km/h 40% 0.0 mm CLR
13:19 30.2 °C 14.7 °C 1012.9 hPa NE 18.0 km/h 18.5 km/h 39% 0.0 mm CLR
13:24 30.2 °C 15.1 °C 1012.9 hPa ENE 18.0 km/h 18.5 km/h 40% 0.0 mm CLR
13:29 30.3 °C 15.2 °C 1012.9 hPa NNE 14.0 km/h 24.1 km/h 40% 0.0 mm CLR
13:34 30.3 °C 15.6 °C 1012.8 hPa NE 14.0 km/h 24.1 km/h 41% 0.0 mm CLR
13:39 30.5 °C 15.8 °C 1012.8 hPa ENE 14.0 km/h 27.8 km/h 41% 0.0 mm CLR
13:44 30.3 °C 15.6 °C 1012.8 hPa NNE 14.0 km/h 16.7 km/h 41% 0.0 mm CLR
13:49 30.7 °C 15.6 °C 1012.8 hPa NE 12.2 km/h 18.5 km/h 40% 0.0 mm CLR
13:54 30.4 °C 15.7 °C 1012.8 hPa NE 12.2 km/h 20.4 km/h 41% 0.0 mm CLR
13:59 30.7 °C 15.6 °C 1012.8 hPa NE 13.7 km/h 23.3 km/h 40% 0.0 mm CLR
14:04 30.9 °C 14.9 °C 1012.7 hPa NE 13.7 km/h 20.4 km/h 38% 0.0 mm CLR
14:09 30.7 °C 14.8 °C 1012.7 hPa NE 14.0 km/h 22.5 km/h 38% 0.0 mm CLR
14:14 30.6 °C 15.1 °C 1012.7 hPa ENE 14.0 km/h 20.1 km/h 39% 0.0 mm CLR
14:19 30.8 °C 15.2 °C 1012.5 hPa NNE 16.1 km/h 25.9 km/h 39% 0.0 mm CLR
14:24 30.7 °C 15.2 °C 1012.5 hPa NNE 16.1 km/h 20.4 km/h 39% 0.0 mm CLR
14:29 30.9 °C 15.3 °C 1012.5 hPa NE 16.1 km/h 25.6 km/h 39% 0.0 mm CLR
14:34 30.9 °C 15.3 °C 1012.3 hPa ENE 16.1 km/h 25.9 km/h 39% 0.0 mm CLR
14:39 30.9 °C 15.3 °C 1012.3 hPa ENE 17.2 km/h 25.9 km/h 39% 0.0 mm CLR
14:44 30.9 °C 15.7 °C 1012.3 hPa NNE 17.2 km/h 25.9 km/h 40% 0.0 mm CLR
14:49 31.1 °C 15.5 °C 1012.1 hPa ENE 16.1 km/h 25.9 km/h 39% 0.0 mm CLR
14:54 30.9 °C 15.3 °C 1012.1 hPa North 16.1 km/h 22.2 km/h 39% 0.0 mm CLR
14:59 31.0 °C 15.4 °C 1012.1 hPa NNE 14.8 km/h 20.4 km/h 39% 0.0 mm CLR
15:04 31.2 °C 16.4 °C 1012.1 hPa NNE 14.8 km/h 20.4 km/h 41% 0.0 mm CLR
15:09 31.2 °C 16.0 °C 1012.1 hPa NNE 14.0 km/h 24.5 km/h 40% 0.0 mm CLR
15:14 31.3 °C 16.1 °C 1012.1 hPa East 14.0 km/h 14.8 km/h 40% 0.0 mm CLR
15:19 31.4 °C 16.2 °C 1012.0 hPa NNW 13.0 km/h 11.1 km/h 40% 0.0 mm CLR
15:24 31.3 °C 16.1 °C 1012.0 hPa NNE 13.0 km/h 24.1 km/h 40% 0.0 mm CLR
15:29 30.9 °C 16.1 °C 1012.0 hPa NE 16.1 km/h 14.0 km/h 41% 0.0 mm CLR
15:34 31.3 °C 16.5 °C 1011.9 hPa ENE 16.1 km/h 22.2 km/h 41% 0.0 mm CLR
15:39 31.2 °C 16.4 °C 1011.9 hPa East 14.8 km/h 16.7 km/h 41% 0.0 mm CLR
15:44 31.3 °C 16.5 °C 1011.9 hPa NE 14.8 km/h 29.6 km/h 41% 0.0 mm CLR
15:49 31.2 °C 16.8 °C 1011.8 hPa NNE 15.6 km/h 20.4 km/h 42% 0.0 mm CLR
15:54 31.3 °C 16.5 °C 1011.8 hPa NNE 15.6 km/h 14.8 km/h 41% 0.0 mm CLR
15:59 31.4 °C 16.6 °C 1011.8 hPa NE 13.0 km/h 17.2 km/h 41% 0.0 mm CLR
16:04 31.4 °C 16.2 °C 1011.6 hPa ENE 13.0 km/h 22.2 km/h 40% 0.0 mm CLR
16:09 31.5 °C 16.3 °C 1011.6 hPa ENE 14.0 km/h 23.7 km/h 40% 0.0 mm CLR
16:14 31.6 °C 16.3 °C 1011.6 hPa NE 14.0 km/h 20.4 km/h 40% 0.0 mm CLR
16:19 31.3 °C 16.1 °C 1011.5 hPa ENE 14.8 km/h 20.4 km/h 40% 0.0 mm CLR
16:24 31.4 °C 16.2 °C 1011.5 hPa NNE 14.8 km/h 18.5 km/h 40% 0.0 mm CLR
16:29 31.4 °C 15.8 °C 1011.5 hPa East 13.7 km/h 20.4 km/h 39% 0.0 mm CLR
16:34 31.3 °C 16.1 °C 1011.4 hPa NE 13.7 km/h 20.4 km/h 40% 0.0 mm CLR
16:39 31.2 °C 16.0 °C 1011.4 hPa NE 16.1 km/h 27.8 km/h 40% 0.0 mm CLR
16:44 31.2 °C 15.6 °C 1011.4 hPa North 16.1 km/h 20.4 km/h 39% 0.0 mm CLR
16:49 31.1 °C 15.5 °C 1011.4 hPa NE 16.4 km/h 22.2 km/h 39% 0.0 mm CLR
16:54 31.2 °C 15.6 °C 1011.4 hPa ENE 16.4 km/h 27.8 km/h 39% 0.0 mm CLR
16:59 31.2 °C 15.6 °C 1011.4 hPa East 15.6 km/h 19.8 km/h 39% 0.0 mm CLR
17:04 31.3 °C 15.7 °C 1011.4 hPa NNE 15.6 km/h 24.1 km/h 39% 0.0 mm CLR
17:09 31.3 °C 15.3 °C 1011.4 hPa ENE 15.6 km/h 24.1 km/h 38% 0.0 mm CLR
17:14 31.3 °C 15.3 °C 1011.4 hPa NNE 15.6 km/h 22.2 km/h 38% 0.0 mm CLR
17:19 31.5 °C 15.4 °C 1011.2 hPa NNE 14.0 km/h 16.4 km/h 38% 0.0 mm CLR
17:24 31.4 °C 15.4 °C 1011.2 hPa ENE 14.0 km/h 23.7 km/h 38% 0.0 mm CLR
17:29 31.2 °C 15.6 °C 1011.2 hPa NE 16.4 km/h 25.9 km/h 39% 0.0 mm CLR
17:34 31.2 °C 16.0 °C 1011.2 hPa NE 16.4 km/h 25.9 km/h 40% 0.0 mm CLR
17:39 31.2 °C 16.0 °C 1011.2 hPa NE 17.2 km/h 25.9 km/h 40% 0.0 mm CLR
17:44 31.2 °C 16.0 °C 1011.2 hPa ENE 17.2 km/h 16.7 km/h 40% 0.0 mm CLR
17:49 31.3 °C 16.1 °C 1011.1 hPa NE 14.0 km/h 29.6 km/h 40% 0.0 mm CLR
17:54 31.1 °C 16.3 °C 1011.1 hPa NNE 14.0 km/h 24.5 km/h 41% 0.0 mm CLR
17:59 31.1 °C 16.3 °C 1011.1 hPa NNE 16.1 km/h 23.3 km/h 41% 0.0 mm CLR
18:04 30.9 °C 16.1 °C 1011.1 hPa NNE 16.1 km/h 29.6 km/h 41% 0.0 mm CLR
18:09 30.9 °C 16.5 °C 1011.1 hPa NE 16.4 km/h 29.6 km/h 42% 0.0 mm CLR
18:14 30.7 °C 15.9 °C 1011.1 hPa NE 16.4 km/h 22.2 km/h 41% 0.0 mm CLR
18:19 30.6 °C 16.2 °C 1011.2 hPa North 20.1 km/h 33.3 km/h 42% 0.0 mm CLR
18:24 30.6 °C 15.8 °C 1011.2 hPa ENE 20.1 km/h 31.5 km/h 41% 0.0 mm CLR
18:29 30.4 °C 15.7 °C 1011.2 hPa NNE 19.8 km/h 29.6 km/h 41% 0.0 mm CLR
18:34 30.3 °C 15.6 °C 1011.1 hPa NE 19.8 km/h 33.3 km/h 41% 0.0 mm CLR
18:39 30.4 °C 15.3 °C 1011.1 hPa NE 19.8 km/h 25.9 km/h 40% 0.0 mm CLR
18:44 30.3 °C 15.2 °C 1011.1 hPa NE 19.8 km/h 33.3 km/h 40% 0.0 mm CLR
18:49 30.3 °C 15.2 °C 1010.9 hPa NE 19.0 km/h 38.9 km/h 40% 0.0 mm CLR
18:54 30.3 °C 15.6 °C 1010.9 hPa NNE 19.0 km/h 29.6 km/h 41% 0.0 mm CLR
18:59 30.2 °C 15.5 °C 1010.9 hPa ENE 19.0 km/h 33.3 km/h 41% 0.0 mm CLR
19:04 30.1 °C 15.8 °C 1011.1 hPa ENE 19.0 km/h 29.6 km/h 42% 0.0 mm CLR
19:09 30.0 °C 15.7 °C 1011.1 hPa ESE 17.2 km/h 24.1 km/h 42% 0.0 mm CLR
19:14 29.8 °C 15.5 °C 1011.1 hPa NE 17.2 km/h 25.9 km/h 42% 0.0 mm CLR
19:19 29.8 °C 15.9 °C 1011.1 hPa ENE 18.0 km/h 18.5 km/h 43% 0.0 mm CLR
19:24 29.6 °C 15.7 °C 1011.1 hPa NE 18.0 km/h 25.9 km/h 43% 0.0 mm CLR
19:29 29.6 °C 16.1 °C 1011.1 hPa NE 16.1 km/h 24.1 km/h 44% 0.0 mm CLR
19:34 29.5 °C 15.9 °C 1011.2 hPa NE 16.1 km/h 20.4 km/h 44% 0.0 mm CLR
19:39 29.5 °C 16.3 °C 1011.2 hPa North 14.0 km/h 14.8 km/h 45% 0.0 mm CLR
19:44 29.3 °C 15.8 °C 1011.2 hPa ENE 14.0 km/h 29.6 km/h 44% 0.0 mm CLR
19:49 29.2 °C 15.7 °C 1011.3 hPa East 14.8 km/h 24.1 km/h 44% 0.0 mm CLR
19:54 29.1 °C 15.6 °C 1011.3 hPa NE 14.8 km/h 22.2 km/h 44% 0.0 mm CLR
19:59 29.1 °C 15.2 °C 1011.3 hPa NE 13.7 km/h 24.1 km/h 43% 0.0 mm CLR
20:04 29.1 °C 15.2 °C 1011.3 hPa NE 13.7 km/h 22.0 km/h 43% 0.0 mm CLR
20:09 29.1 °C 15.2 °C 1011.3 hPa ENE 14.8 km/h 14.8 km/h 43% 0.0 mm CLR
20:14 29.0 °C 15.5 °C 1011.3 hPa ENE 14.8 km/h 13.0 km/h 44% 0.0 mm CLR
20:19 28.9 °C 15.4 °C 1011.5 hPa NE 11.1 km/h 22.2 km/h 44% 0.0 mm CLR
20:24 28.9 °C 15.4 °C 1011.5 hPa ENE 11.1 km/h 20.1 km/h 44% 0.0 mm CLR
20:29 28.8 °C 15.7 °C 1011.5 hPa NE 12.2 km/h 20.4 km/h 45% 0.0 mm CLR
20:34 28.7 °C 15.9 °C 1011.5 hPa ESE 12.2 km/h 22.2 km/h 46% 0.0 mm CLR
20:39 28.6 °C 15.8 °C 1011.5 hPa ENE 12.2 km/h 18.5 km/h 46% 0.0 mm CLR
20:44 28.5 °C 16.1 °C 1011.5 hPa East 12.2 km/h 22.2 km/h 47% 0.0 mm CLR
20:49 28.4 °C 16.3 °C 1011.6 hPa NE 11.1 km/h 16.7 km/h 48% 0.0 mm CLR
20:54 28.3 °C 17.2 °C 1011.6 hPa ENE 11.1 km/h 22.2 km/h 51% 0.0 mm CLR
20:59 28.1 °C 17.6 °C 1011.6 hPa ENE 11.1 km/h 18.5 km/h 53% 0.0 mm CLR
21:04 27.8 °C 17.7 °C 1011.6 hPa NE 11.1 km/h 18.5 km/h 54% 0.0 mm CLR
21:09 27.5 °C 17.9 °C 1011.6 hPa NE 13.7 km/h 18.5 km/h 56% 0.0 mm CLR
21:14 27.3 °C 18.1 °C 1011.6 hPa NNE 13.7 km/h 18.5 km/h 57% 0.0 mm CLR
21:19 27.2 °C 18.2 °C 1011.7 hPa NE 13.0 km/h 18.5 km/h 58% 0.0 mm CLR
21:24 27.0 °C 18.6 °C 1011.7 hPa NNE 13.0 km/h 14.8 km/h 60% 0.0 mm CLR
21:29 26.8 °C 18.7 °C 1011.7 hPa NE 12.2 km/h 24.1 km/h 61% 0.0 mm CLR
21:34 26.7 °C 19.1 °C 1011.8 hPa ENE 12.2 km/h 20.4 km/h 63% 0.0 mm CLR
21:39 26.6 °C 19.0 °C 1011.8 hPa ENE 11.9 km/h 14.8 km/h 63% 0.0 mm CLR
21:44 26.5 °C 19.1 °C 1011.8 hPa NE 11.9 km/h 14.8 km/h 64% 0.0 mm CLR
21:49 26.4 °C 19.3 °C 1012.0 hPa NE 10.3 km/h 14.8 km/h 65% 0.0 mm CLR
21:54 26.3 °C 19.2 °C 1012.0 hPa NNE 10.3 km/h 14.8 km/h 65% 0.0 mm CLR
21:59 26.2 °C 19.3 °C 1012.0 hPa ENE 11.1 km/h 14.8 km/h 66% 0.0 mm CLR
22:04 26.1 °C 19.5 °C 1012.1 hPa NE 11.1 km/h 16.7 km/h 67% 0.0 mm CLR
22:09 26.0 °C 19.6 °C 1012.1 hPa NE 10.3 km/h 14.8 km/h 68% 0.0 mm CLR
22:14 25.8 °C 19.7 °C 1012.1 hPa ENE 10.3 km/h 16.1 km/h 69% 0.0 mm CLR
22:19 25.7 °C 19.8 °C 1012.4 hPa NE 12.2 km/h 18.5 km/h 70% 0.0 mm CLR
22:24 25.7 °C 20.1 °C 1012.4 hPa NE 12.2 km/h 12.2 km/h 71% 0.0 mm CLR
22:29 25.6 °C 19.9 °C 1012.4 hPa NE 10.0 km/h 13.0 km/h 71% 0.0 mm CLR
22:34 25.6 °C 19.9 °C 1012.6 hPa ENE 10.0 km/h 14.8 km/h 71% 0.0 mm CLR
22:39 25.6 °C 20.2 °C 1012.6 hPa NE 8.7 km/h 9.3 km/h 72% 0.0 mm CLR
22:44 25.5 °C 20.1 °C 1012.6 hPa East 8.7 km/h 9.3 km/h 72% 0.0 mm CLR
22:49 25.5 °C 20.1 °C 1012.8 hPa NE 6.9 km/h 9.3 km/h 72% 0.0 mm CLR
22:54 25.4 °C 20.0 °C 1012.8 hPa ENE 6.9 km/h 3.7 km/h 72% 0.0 mm CLR
22:59 25.4 °C 20.0 °C 1012.8 hPa NE 5.8 km/h 8.7 km/h 72% 0.0 mm CLR
23:04 25.4 °C 20.2 °C 1012.9 hPa ENE 5.8 km/h 9.3 km/h 73% 0.0 mm CLR
23:09 25.3 °C 20.1 °C 1012.9 hPa ENE 5.8 km/h 11.1 km/h 73% 0.0 mm CLR
23:14 25.2 °C 20.0 °C 1012.9 hPa NE 5.8 km/h 9.3 km/h 73% 0.0 mm CLR
23:19 25.2 °C 20.0 °C 1013.0 hPa NE 5.8 km/h 7.4 km/h 73% 0.0 mm CLR
23:24 25.1 °C 20.1 °C 1013.0 hPa NE 5.8 km/h 7.4 km/h 74% 0.0 mm CLR
23:29 25.1 °C 20.1 °C 1013.0 hPa East 4.7 km/h 6.9 km/h 74% 0.0 mm CLR
23:34 25.1 °C 20.1 °C 1013.1 hPa NE 4.7 km/h 7.4 km/h 74% 0.0 mm CLR
23:39 25.1 °C 20.1 °C 1013.1 hPa NNE 5.0 km/h 5.6 km/h 74% 0.0 mm CLR
23:44 25.0 °C 20.1 °C 1013.1 hPa NE 5.0 km/h 7.4 km/h 74% 0.0 mm CLR
23:49 24.9 °C 19.9 °C 1013.1 hPa NE 5.0 km/h 7.4 km/h 74% 0.0 mm CLR
23:54 24.8 °C 20.1 °C 1013.1 hPa NE 5.0 km/h 7.4 km/h 75% 0.0 mm CLR
23:59 24.8 °C 20.1 °C 1013.1 hPa NE 5.0 km/h 9.3 km/h 75% 0.0 mm CLR
Murcia-Puente Tocinos, España
Compliments of Weather Underground - 2.75 mb

La estación de MeteoMurcia.com, publica sus datos en los siguientes proyectos:

Weather Underground PWS IMURCIAP2 Meteoclimatic www.awekas.at

W3Counter
Web Analytics